• Join FlightAware (Why Join?)
  • Login
  • US Flag 
09:26PM EDT


 

Airport Tracker/Info


-or-


 

Live Flight TrackerFlight Track Log ✈ N143DE ✈ 20-Jan-2014 ✈ KATL - KRIC

Flight Track Log - Related Links

Times and Time Zones

All times are in EST time to prevent confusion due to time zone crossing. See the N143DE flight status page for this flight to view local times or setup timezone preferences in your user account.

Time Position Orientation Groundspeed Altitude Reporting Facility
EST Latitude Longitude Course Direction KTS MPH feet Rate Location/Type
03:00AM 33.6333 -84.5167 270° West 136 157 4,800  Level Atlanta TRACON
03:01AM 33.6667 -84.5167 360° North 187 215 6,200 1,200 Climbing Atlanta TRACON
03:02AM 33.6833 -84.4500 73° East 205 236 7,300 1,200 Climbing Atlanta TRACON
03:03AM 33.7167 -84.4000 51° Northeast 205 236 8,500 1,200 Climbing Atlanta TRACON
03:04AM 33.8531 -84.0659 54° Northeast  Level Estimated
03:04AM 33.7647 -84.3236 53° Northeast 208 239 10,400  Level Atlanta Center
03:05AM 33.7983 -84.2714 52° Northeast 198 228 11,400 1,080 Climbing Atlanta Center
03:06AM 33.8317 -84.2139 55° Northeast 203 234 12,600 1,200 Climbing Atlanta Center
03:07AM 33.8631 -84.1614 54° Northeast 203 234 13,900 1,140 Climbing Atlanta Center
03:08AM 33.8944 -84.1089 54° Northeast 198 228 14,900 960 Climbing Atlanta Center
03:09AM 33.9236 -84.0564 56° Northeast 193 222 15,900 900 Climbing Atlanta Center
03:10AM 33.9550 -84.0011 56° Northeast 193 222 16,700 780 Climbing Atlanta Center
03:11AM 33.9883 -83.9461 54° Northeast 193 222 17,500 780 Climbing Atlanta Center
03:12AM 34.0217 -83.8883 55° Northeast 193 222 18,300 780 Climbing Atlanta Center
03:13AM 34.0550 -83.8306 55° Northeast 199 229 19,100 900 Climbing Atlanta Center
03:14AM 34.0883 -83.7703 56° Northeast 212 244 20,100 1,020 Climbing Atlanta Center
03:15AM 34.1256 -83.7100 53° Northeast 218 251 21,200 900 Climbing Atlanta Center
03:16AM 34.1547 -83.6547 57° Northeast 218 251 22,000 900 Climbing Atlanta Center
03:17AM 34.1919 -83.5917 54° Northeast 218 251 23,000 900 Climbing Atlanta Center
03:18AM 34.2272 -83.5314 55° Northeast 218 251 23,900 900 Climbing Atlanta Center
03:19AM 34.2625 -83.4683 56° Northeast 218 251 24,900 600 Climbing Atlanta Center
03:20AM 34.3019 -83.4000 55° Northeast 230 265 25,100  Climbing Atlanta Center
03:21AM 34.3431 -83.3267 56° Northeast 256 295 25,000 -60 Descending Atlanta Center
03:22AM 34.3928 -83.2433 54° Northeast 269 310 25,000  Level Atlanta Center
03:23AM 34.4381 -83.1597 57° Northeast 280 322 25,000  Level Atlanta Center
03:24AM 34.4833 -83.0811 55° Northeast 285 328 25,000  Level Atlanta Center
03:25AM 34.5286 -82.9975 57° Northeast 285 328 25,000  Level Atlanta Center
03:26AM 34.5758 -82.9186 54° Northeast 285 328 25,000  Level Atlanta Center
03:27AM 34.6189 -82.8347 58° Northeast 290 334 25,000  Level Atlanta Center
03:28AM 34.6622 -82.7661 52° Northeast 284 327 25,000  Level Atlanta Center
03:29AM 34.7072 -82.6844 56° Northeast 284 327 25,000  Level Atlanta Center
03:30AM 34.7542 -82.6028 55° Northeast 284 327 25,000  Level Atlanta Center
03:31AM 34.8053 -82.5158 54° Northeast 284 327 25,000  Level Atlanta Center
03:32AM 34.8503 -82.4367 55° Northeast 284 327 25,000  Level Atlanta Center
03:33AM 34.8950 -82.3522 57° Northeast 284 327 25,000  Level Atlanta Center
03:34AM 34.9397 -82.2728 56° Northeast 284 327 25,000  Level Atlanta Center
03:35AM 34.9825 -82.2033 53° Northeast 284 327 25,000  Level Atlanta Center
03:36AM 35.0253 -82.1214 57° Northeast 284 327 25,000  Level Atlanta Center
03:37AM 35.0697 -82.0417 56° Northeast 284 327 25,000  Level Atlanta Center
03:38AM 35.1122 -81.9619 57° Northeast 284 327 25,000  Level Atlanta Center
03:39AM 35.1589 -81.8819 54° Northeast 284 327 25,000  Level Atlanta Center
03:40AM 35.2033 -81.8044 55° Northeast 284 327 25,000  Level Atlanta Center
03:41AM 35.2458 -81.7244 57° Northeast 284 327 25,000  Level Atlanta Center
03:42AM 35.2881 -81.6444 57° Northeast 284 327 25,000  Level Atlanta Center
03:43AM 35.3303 -81.5669 56° Northeast 284 327 25,000  Level Atlanta Center
03:44AM 35.3725 -81.4867 57° Northeast 284 327 25,000  Level Atlanta Center
03:45AM 35.4147 -81.4089 56° Northeast 284 327 25,000  Level Atlanta Center
03:46AM 35.4608 -81.3208 57° Northeast 284 327 25,000  Level Atlanta Center
03:47AM 35.5028 -81.2428 57° Northeast 284 327 25,000  Level Atlanta Center
03:48AM 35.5489 -81.1622 55° Northeast 284 327 25,000  Level Atlanta Center
03:49AM 35.5908 -81.0814 57° Northeast 284 327 25,000  Level Atlanta Center
03:50AM 35.6347 -80.9981 57° Northeast 284 327 25,000  Level Atlanta Center
03:51AM 35.6786 -80.9197 55° Northeast 284 327 25,000  Level Atlanta Center
03:52AM 35.7225 -80.8414 55° Northeast 284 327 25,000  Level Atlanta Center
03:53AM 35.7642 -80.7578 58° Northeast 284 327 25,000  Level Atlanta Center
03:54AM 35.8078 -80.6767 56° Northeast 284 327 25,000  Level Atlanta Center
03:55AM 35.8494 -80.5956 58° Northeast 284 327 25,000  Level Atlanta Center
03:56AM 35.8931 -80.5142 57° Northeast 284 327 25,000  Level Atlanta Center
03:57AM 35.9364 -80.4328 57° Northeast 284 327 25,000  Level Atlanta Center
03:58AM 35.9739 -80.3567 59° Northeast 284 327 25,000  Level Atlanta Center
04:00AM 36.0456 -80.2214 57° Northeast 293 337 25,000  Level Washington Center
04:01AM 36.0883 -80.1389 57° Northeast 293 337 25,000  Level Washington Center
04:02AM 36.1356 -80.0517 56° Northeast 282 325 25,000  Level Washington Center
04:03AM 36.1781 -79.9717 57° Northeast 277 319 25,000  Level Washington Center
04:04AM 36.2208 -79.8892 57° Northeast 277 319 25,000  Level Washington Center
04:05AM 36.2633 -79.8089 57° Northeast 277 319 25,000  Level Washington Center
04:06AM 36.3058 -79.7261 57° Northeast 277 319 25,000  Level Washington Center
04:07AM 36.3483 -79.6433 57° Northeast 277 319 25,000  Level Washington Center
04:08AM 36.3908 -79.5606 57° Northeast 277 319 25,000  Level Washington Center
04:09AM 36.4331 -79.4800 57° Northeast 277 319 25,000  Level Washington Center
04:10AM 36.4733 -79.3917 60° Northeast 277 319 25,000  Level Washington Center
04:11AM 36.5133 -79.3186 56° Northeast 282 325 25,000  Level Washington Center
04:12AM 36.5578 -79.2328 57° Northeast 282 325 25,000  Level Washington Center
04:13AM 36.6000 -79.1467 59° Northeast 287 330 25,000  Level Washington Center
04:14AM 36.6442 -79.0633 57° Northeast 287 330 25,000  Level Washington Center
04:15AM 36.6928 -78.9672 58° Northeast 292 336 25,000 -780 Level Washington Center
04:16AM 36.7367 -78.8836 57° Northeast 292 336 23,500 -1,500 Descending Washington Center
04:17AM 36.7786 -78.7997 58° Northeast 287 330 22,000 -1,560 Descending Washington Center
04:18AM 36.8206 -78.7133 59° Northeast 287 330 20,500 -1,620 Descending Washington Center
04:19AM 36.8600 -78.6369 57° Northeast 287 330 18,900 -1,620 Descending Washington Center
04:20AM 36.9019 -78.5528 58° Northeast 287 330 17,300 -1,500 Descending Washington Center
04:21AM 36.9456 -78.4689 57° Northeast 287 330 15,900 -1,560 Descending Washington Center
04:22AM 36.9917 -78.3742 59° Northeast 287 330 14,200 -1,560 Descending Washington Center
04:23AM 37.0333 -78.2900 58° Northeast 287 330 12,800 -1,500 Descending Washington Center
04:24AM 37.0725 -78.2081 59° Northeast 287 330 11,300 -1,500 Descending Washington Center
04:25AM 37.1075 -78.1336 59° Northeast 282 325 9,800 -1,200 Descending Washington Center
04:26AM 37.1467 -78.0594 56° Northeast 270 311 9,000 -420 Descending Washington Center
04:27AM 37.1836 -77.9822 59° Northeast 264 304 9,000 -300 Level Washington Center
04:30AM 37.2833 -77.8000 55° Northeast 251 289 8,100 -660 Descending Potomac TRACON
04:31AM 37.3333 -77.7333 47° Northeast 247 284 6,800 -1,320 Descending Potomac TRACON
04:32AM 37.3833 -77.6667 47° Northeast 246 283 5,500 -1,320 Descending Potomac TRACON
04:33AM 37.4333 -77.6167 38° Northeast 242 278 4,200 -1,200 Descending Potomac TRACON
04:34AM 37.4667 -77.5500 58° Northeast 233 268 3,200 -600 Descending Potomac TRACON
04:35AM 37.5167 -77.5000 38° Northeast 214 246 3,000 -120 Descending Potomac TRACON
04:36AM 37.5500 -77.4667 38° Northeast 196 226 3,000  Level Potomac TRACON
04:37AM 37.6167 -77.4167 31° Northeast 201 231 3,000 -240 Level Potomac TRACON
04:38AM 37.6500 -77.3667 50° Northeast 197 227 2,500 -540 Descending Potomac TRACON
04:39AM 37.6833 -77.3333 38° Northeast 192 221 2,000 -300 Descending Potomac TRACON
04:40AM 37.6667 -77.2833 113° Southeast 213 245 2,000  Level Potomac TRACON
04:41AM 37.6333 -77.2833 180° South 143 165 2,000  Level Potomac TRACON
04:42AM 37.6167 -77.2833 180° South 119 137 2,000 -180 Level Potomac TRACON
04:43AM 37.5833 -77.3000 202° Southwest 99 114 1,700 -420 Descending Potomac TRACON
04:44AM 37.5667 -77.3167 218° Southwest 92 106 1,200 -540 Descending Potomac TRACON
04:45AM 37.5333 -77.3167 180° South 97 112 700 -540 Descending Potomac TRACON